Cornfields, Arizona
Current Conditions -  °F | °C
As of 1:53 AM on Sunday 21 Dec 2014 (Local Time) from KRQE Reporting Station
Overcast Overcast  
Wind Chill: 33°   Ceiling: 5500
Heat Index: 33°   Visibility: 10mi
Dew Point: 26°   Wind: 0mph
Humidity: 75%   Direction: NA
Pressure: 30.1"   Gusts: NA
Location:  35.6053°N, 109.458°W
Report Text: KRQE 210853Z AUTO 00000KT 10SM OVC055 01/M03 A3010 RMK AO2 SLP154 T00061033 58010 TSNO
Loading
Personal Weather Stations






























Interactive Weather Map New forecast layout! Learn more

10-Day Weather Forecast

Advertisements
Track Severe Weather on mobile